createdAt,value
2019-05-09T00:02:37.874Z,1.00
2019-05-09T00:05:08.055Z,0.90
2019-05-09T00:07:37.448Z,1.33
2019-05-09T00:10:08.482Z,1.07
2019-05-09T00:12:37.783Z,1.07
2019-05-09T00:15:07.267Z,1.20
2019-05-09T00:17:36.689Z,1.03
2019-05-09T00:20:18.587Z,1.43
2019-05-09T00:22:47.938Z,1.30
2019-05-09T00:25:17.222Z,0.87
2019-05-09T00:27:46.593Z,1.13
2019-05-09T00:30:17.739Z,1.10
2019-05-09T00:32:47.083Z,0.80
2019-05-09T00:35:25.168Z,1.10
2019-05-09T00:38:13.462Z,1.17
2019-05-09T00:40:55.283Z,0.80
2019-05-09T00:43:13.875Z,0.60
2019-05-09T00:46:04.123Z,1.27
2019-05-09T00:48:55.840Z,1.13
2019-05-09T00:51:25.139Z,1.30
2019-05-09T00:53:54.468Z,1.00
2019-05-09T00:56:24.062Z,1.67
2019-05-09T00:58:53.877Z,1.10
2019-05-09T01:01:24.009Z,1.00
2019-05-09T01:03:53.907Z,1.33
2019-05-09T01:06:24.169Z,0.70
2019-05-09T01:08:53.972Z,1.43
2019-05-09T01:11:24.253Z,0.97
2019-05-09T01:13:54.569Z,1.40
2019-05-09T01:16:24.427Z,1.10
2019-05-09T01:18:54.599Z,1.00
2019-05-09T01:21:24.312Z,0.90
2019-05-09T01:23:54.143Z,1.20
2019-05-09T01:26:24.229Z,0.97
2019-05-09T01:28:54.264Z,1.03
2019-05-09T01:31:24.351Z,1.00
2019-05-09T01:34:09.638Z,1.40
2019-05-09T01:36:56.869Z,1.03
2019-05-09T01:39:26.274Z,0.70
2019-05-09T01:41:55.650Z,1.23
2019-05-09T01:44:25.086Z,0.93
2019-05-09T01:46:54.477Z,1.00
2019-05-09T01:49:23.829Z,1.03
2019-05-09T01:51:53.804Z,1.53
2019-05-09T01:54:24.731Z,1.70
2019-05-09T01:56:54.144Z,0.80
2019-05-09T01:59:24.373Z,1.23
2019-05-09T02:01:54.295Z,0.77
2019-05-09T02:04:24.384Z,0.97
2019-05-09T02:06:54.002Z,0.80
2019-05-09T02:09:23.678Z,1.50
2019-05-09T02:11:54.514Z,1.37
2019-05-09T02:14:36.196Z,1.13
2019-05-09T02:17:15.294Z,1.47
2019-05-09T02:19:44.909Z,0.87
2019-05-09T02:22:34.233Z,0.90
2019-05-09T02:25:04.407Z,0.83
2019-05-09T02:27:33.825Z,1.33
2019-05-09T02:30:08.533Z,1.23
2019-05-09T02:32:37.936Z,1.00
2019-05-09T02:35:08.090Z,0.90
2019-05-09T02:37:38.936Z,1.00
2019-05-09T02:40:10.086Z,0.87
2019-05-09T02:42:40.198Z,1.33
2019-05-09T02:45:10.278Z,0.93
2019-05-09T02:47:39.703Z,0.83
2019-05-09T02:50:09.857Z,1.00
2019-05-09T02:52:39.974Z,0.87
2019-05-09T02:55:10.591Z,1.40
2019-05-09T02:57:40.605Z,1.00
2019-05-09T03:00:21.626Z,1.17
2019-05-09T03:03:09.177Z,1.00
2019-05-09T03:05:38.723Z,1.07
2019-05-09T03:08:09.423Z,1.00
2019-05-09T03:10:39.312Z,1.20
2019-05-09T03:13:09.293Z,1.07
2019-05-09T03:15:39.699Z,0.80
2019-05-09T03:18:09.534Z,0.97
2019-05-09T03:20:58.576Z,0.97
2019-05-09T03:23:28.722Z,0.83
2019-05-09T03:25:59.004Z,1.23
2019-05-09T03:28:38.837Z,1.13
2019-05-09T03:31:09.515Z,1.20
2019-05-09T03:33:40.559Z,1.27
2019-05-09T03:36:09.866Z,1.00
2019-05-09T03:38:39.249Z,0.90
2019-05-09T03:41:08.729Z,1.57
2019-05-09T03:43:38.210Z,1.00
2019-05-09T03:46:30.931Z,1.03
2019-05-09T03:49:01.143Z,1.60
2019-05-09T03:51:30.498Z,1.20
2019-05-09T03:53:59.901Z,1.03
2019-05-09T03:56:33.920Z,1.43
2019-05-09T03:59:03.346Z,1.27
2019-05-09T04:01:32.651Z,1.33
2019-05-09T04:04:03.019Z,1.03
2019-05-09T04:06:32.745Z,1.37
2019-05-09T04:09:02.451Z,1.10
2019-05-09T04:11:31.846Z,1.30
2019-05-09T04:14:04.754Z,1.67
2019-05-09T04:16:34.079Z,1.83
2019-05-09T04:19:03.424Z,2.00
2019-05-09T04:21:32.762Z,1.87
2019-05-09T04:24:02.543Z,1.20
2019-05-09T04:26:43.558Z,1.30
2019-05-09T04:29:12.872Z,1.17
2019-05-09T04:31:42.258Z,1.30
2019-05-09T04:34:12.018Z,1.17
2019-05-09T04:36:41.430Z,1.00
2019-05-09T04:39:18.215Z,1.37
2019-05-09T04:41:42.800Z,1.30
2019-05-09T04:44:21.349Z,1.30
2019-05-09T04:46:48.089Z,1.47
2019-05-09T04:49:19.082Z,1.20
2019-05-09T04:51:48.848Z,1.80
2019-05-09T04:54:18.247Z,1.37
2019-05-09T04:56:47.657Z,1.90
2019-05-09T04:59:17.951Z,1.57
2019-05-09T05:01:58.091Z,1.40
2019-05-09T05:04:28.321Z,2.07
2019-05-09T05:06:58.518Z,1.53
2019-05-09T05:09:28.222Z,1.30
2019-05-09T05:11:58.149Z,2.97
2019-05-09T05:14:30.002Z,1.70
2019-05-09T05:17:07.490Z,1.57
2019-05-09T05:19:31.481Z,2.27
2019-05-09T05:22:09.507Z,1.40
2019-05-09T05:24:44.397Z,1.80
2019-05-09T05:27:13.776Z,2.23
2019-05-09T05:29:43.198Z,0.93
2019-05-09T05:32:18.013Z,1.33
2019-05-09T05:35:12.490Z,1.93
2019-05-09T05:37:41.924Z,1.70
2019-05-09T05:40:11.562Z,1.40
2019-05-09T05:42:40.949Z,1.50
2019-05-09T05:45:10.393Z,1.17
2019-05-09T05:47:49.875Z,1.13
2019-05-09T05:50:19.321Z,0.70
2019-05-09T05:52:48.637Z,0.70
2019-05-09T05:55:18.353Z,0.53
2019-05-09T05:57:48.137Z,0.67
2019-05-09T06:00:18.902Z,0.40
2019-05-09T06:02:48.268Z,0.40
2019-05-09T06:05:18.689Z,0.30
2019-05-09T06:07:48.556Z,0.50
2019-05-09T06:10:18.800Z,0.37
2019-05-09T06:12:48.621Z,0.33
2019-05-09T06:15:18.443Z,0.30
2019-05-09T06:17:48.520Z,0.60
2019-05-09T06:20:18.070Z,0.40
2019-05-09T06:22:47.812Z,0.53
2019-05-09T06:25:20.696Z,0.40
2019-05-09T06:27:48.848Z,0.40
2019-05-09T06:30:28.203Z,0.30
2019-05-09T06:32:58.233Z,0.53
2019-05-09T06:35:28.355Z,0.30
2019-05-09T06:37:58.837Z,0.30
2019-05-09T06:40:29.053Z,0.30
2019-05-09T06:42:59.335Z,0.20
2019-05-09T06:45:41.661Z,0.40
2019-05-09T06:48:10.720Z,0.50
2019-05-09T06:50:40.037Z,0.43
2019-05-09T06:53:09.393Z,0.30
2019-05-09T06:55:38.806Z,0.30
2019-05-09T06:58:27.578Z,0.50
2019-05-09T07:01:03.537Z,0.30
2019-05-09T07:03:32.909Z,0.50
2019-05-09T07:06:09.532Z,0.30
2019-05-09T07:08:44.738Z,0.30
2019-05-09T07:11:14.197Z,0.40
2019-05-09T07:13:43.525Z,0.53
2019-05-09T07:16:12.882Z,0.50
2019-05-09T07:18:42.261Z,0.40
2019-05-09T07:21:11.707Z,0.47
2019-05-09T07:23:41.130Z,0.30
2019-05-09T07:26:12.850Z,0.20
2019-05-09T07:28:42.253Z,0.40
2019-05-09T07:31:42.891Z,0.30
2019-05-09T07:34:28.525Z,0.50
2019-05-09T07:36:58.178Z,0.40
2019-05-09T07:39:27.792Z,0.47
2019-05-09T07:41:58.318Z,0.40
2019-05-09T07:44:33.171Z,0.30
2019-05-09T07:47:04.180Z,0.30
2019-05-09T07:49:33.945Z,0.40
2019-05-09T07:52:06.888Z,0.40
2019-05-09T07:54:34.472Z,0.30
2019-05-09T07:57:03.906Z,0.47
2019-05-09T07:59:33.357Z,0.60
2019-05-09T08:02:03.077Z,0.40
2019-05-09T08:04:32.492Z,0.50
2019-05-09T08:07:01.920Z,0.30
2019-05-09T08:09:31.402Z,0.40
2019-05-09T08:12:00.767Z,0.30
2019-05-09T08:14:30.207Z,0.80
2019-05-09T08:16:59.678Z,0.30
2019-05-09T08:19:30.457Z,0.40
2019-05-09T08:21:59.881Z,0.33
2019-05-09T08:24:29.265Z,0.30
2019-05-09T08:26:58.689Z,0.33
2019-05-09T08:29:28.359Z,0.40
2019-05-09T08:31:58.385Z,0.47
2019-05-09T08:34:28.568Z,0.60
2019-05-09T08:36:58.327Z,0.57
2019-05-09T08:39:27.973Z,0.60
2019-05-09T08:41:59.245Z,0.50
2019-05-09T08:44:31.153Z,0.23
2019-05-09T08:46:59.663Z,0.30
2019-05-09T08:49:38.146Z,0.40
2019-05-09T08:52:16.200Z,0.50
2019-05-09T08:54:48.671Z,0.73
2019-05-09T08:57:18.358Z,0.43
2019-05-09T08:59:50.562Z,0.47
2019-05-09T09:02:22.191Z,0.40
2019-05-09T09:04:49.958Z,0.73
2019-05-09T09:07:19.584Z,0.70
2019-05-09T09:09:49.131Z,0.37
2019-05-09T09:12:29.872Z,0.40
2019-05-09T09:14:49.828Z,0.37
2019-05-09T09:17:19.275Z,0.50
2019-05-09T09:19:48.808Z,0.40
2019-05-09T09:22:18.201Z,0.30
2019-05-09T09:24:48.309Z,0.30
2019-05-09T09:27:18.356Z,0.43
2019-05-09T09:29:48.187Z,0.40
2019-05-09T09:32:18.904Z,0.30
2019-05-09T09:34:48.740Z,0.40
2019-05-09T09:37:18.653Z,0.40
2019-05-09T09:39:48.998Z,0.30
2019-05-09T09:42:19.863Z,0.40
2019-05-09T09:44:49.769Z,0.27
2019-05-09T09:47:22.994Z,0.30
2019-05-09T09:49:50.328Z,0.30
2019-05-09T09:52:19.744Z,0.30
2019-05-09T09:54:49.136Z,0.30
2019-05-09T09:57:19.183Z,0.50
2019-05-09T09:59:54.931Z,0.50
2019-05-09T10:02:30.974Z,0.87
2019-05-09T10:05:00.403Z,0.50
2019-05-09T10:07:29.781Z,0.40
2019-05-09T10:09:59.099Z,0.40
2019-05-09T10:12:29.155Z,0.40
2019-05-09T10:15:08.901Z,0.30
2019-05-09T10:17:58.083Z,0.60
2019-05-09T10:20:34.509Z,0.57
2019-05-09T10:23:15.048Z,0.40
2019-05-09T10:25:34.957Z,0.30
2019-05-09T10:28:04.354Z,0.67
2019-05-09T10:30:37.874Z,0.60
2019-05-09T10:33:08.930Z,0.50
2019-05-09T10:35:39.152Z,0.40
2019-05-09T10:38:08.936Z,0.40
2019-05-09T10:40:39.815Z,0.40
2019-05-09T10:43:34.002Z,0.40
2019-05-09T10:46:19.058Z,0.43
2019-05-09T10:48:52.721Z,0.30
2019-05-09T10:51:22.213Z,0.40
2019-05-09T10:53:51.567Z,0.40
2019-05-09T10:56:20.919Z,0.40
2019-05-09T10:58:50.352Z,0.30
2019-05-09T11:01:19.785Z,0.30
2019-05-09T11:03:49.219Z,0.60
2019-05-09T11:06:18.805Z,0.33
2019-05-09T11:08:48.204Z,0.43
2019-05-09T11:11:18.177Z,0.30
2019-05-09T11:13:48.505Z,0.30
2019-05-09T11:16:18.487Z,0.33
2019-05-09T11:18:48.561Z,0.30
2019-05-09T11:21:19.134Z,0.30
2019-05-09T11:23:49.838Z,0.30
2019-05-09T11:26:19.231Z,0.40
2019-05-09T11:28:48.669Z,0.30
2019-05-09T11:31:18.591Z,0.37
2019-05-09T11:33:48.684Z,0.30
2019-05-09T11:36:21.125Z,0.30
2019-05-09T11:38:49.851Z,0.30
2019-05-09T11:41:19.717Z,0.30
2019-05-09T11:43:49.159Z,0.30
2019-05-09T11:46:18.645Z,0.30
2019-05-09T11:48:48.344Z,0.30
2019-05-09T11:51:22.044Z,0.37
2019-05-09T11:53:48.989Z,0.43
2019-05-09T11:56:18.503Z,0.50
2019-05-09T11:58:48.388Z,0.40
2019-05-09T12:01:19.030Z,0.40
2019-05-09T12:03:52.112Z,0.30
2019-05-09T12:06:20.517Z,0.40
2019-05-09T12:08:50.178Z,0.30
2019-05-09T12:11:21.432Z,0.50
2019-05-09T12:13:50.570Z,0.43
2019-05-09T12:16:19.962Z,0.40
2019-05-09T12:18:49.335Z,0.30
2019-05-09T12:21:19.512Z,0.33
2019-05-09T12:23:50.046Z,0.33
2019-05-09T12:26:19.544Z,0.50
2019-05-09T12:28:49.020Z,0.40
2019-05-09T12:31:18.523Z,0.40
2019-05-09T12:33:48.597Z,0.27
2019-05-09T12:36:19.392Z,0.40
2019-05-09T12:38:50.206Z,0.40
2019-05-09T12:41:19.866Z,0.40
2019-05-09T12:43:49.297Z,0.20
2019-05-09T12:46:18.718Z,0.40
2019-05-09T12:48:48.312Z,0.50
2019-05-09T12:51:18.521Z,0.30
2019-05-09T12:53:48.644Z,0.30
2019-05-09T12:56:18.871Z,0.30
2019-05-09T12:58:48.347Z,0.37
2019-05-09T13:01:18.723Z,0.30
2019-05-09T13:03:48.716Z,0.30
2019-05-09T13:06:20.237Z,0.40
2019-05-09T13:08:49.516Z,0.50
2019-05-09T13:11:20.181Z,0.33
2019-05-09T13:13:49.735Z,0.40
2019-05-09T13:16:49.523Z,0.67
2019-05-09T13:19:18.523Z,0.50
2019-05-09T13:21:47.960Z,0.33
2019-05-09T13:24:19.572Z,0.60
2019-05-09T13:26:50.135Z,0.30
2019-05-09T13:29:19.552Z,0.60
2019-05-09T13:31:48.975Z,0.50
2019-05-09T13:34:18.973Z,0.57
2019-05-09T13:36:49.075Z,0.40
2019-05-09T13:39:18.607Z,0.60
2019-05-09T13:41:47.987Z,0.20
2019-05-09T13:44:18.098Z,0.37
2019-05-09T13:46:48.883Z,0.30
2019-05-09T13:49:19.380Z,0.40
2019-05-09T13:51:58.706Z,0.30
2019-05-09T13:54:19.976Z,0.40
2019-05-09T13:56:56.583Z,0.60
2019-05-09T13:59:20.462Z,0.33
2019-05-09T14:01:49.866Z,0.20
2019-05-09T14:04:19.220Z,0.57
2019-05-09T14:06:48.862Z,0.80
2019-05-09T14:09:20.002Z,0.70
2019-05-09T14:11:49.510Z,0.40
2019-05-09T14:14:18.881Z,0.53
2019-05-09T14:16:48.240Z,0.33
2019-05-09T14:19:35.955Z,0.50
2019-05-09T14:21:48.726Z,0.70
2019-05-09T14:24:19.226Z,0.40
2019-05-09T14:26:48.845Z,0.70
2019-05-09T14:29:20.457Z,0.60
2019-05-09T14:31:49.261Z,0.50
2019-05-09T14:34:19.609Z,0.80
2019-05-09T14:36:49.715Z,0.30
2019-05-09T14:39:19.177Z,0.33
2019-05-09T14:41:48.637Z,0.40
2019-05-09T14:44:18.351Z,0.60
2019-05-09T14:46:48.337Z,0.37
2019-05-09T14:49:17.923Z,0.40
2019-05-09T14:51:49.817Z,0.60
2019-05-09T14:54:18.421Z,0.20
2019-05-09T14:56:48.584Z,0.40
2019-05-09T14:59:18.744Z,0.40
2019-05-09T15:01:49.516Z,0.30
2019-05-09T15:04:19.385Z,0.57
2019-05-09T15:06:48.984Z,0.37
2019-05-09T15:09:18.460Z,1.03
2019-05-09T15:11:48.539Z,0.50
2019-05-09T15:14:18.354Z,0.50
2019-05-09T15:16:48.689Z,0.60
2019-05-09T15:19:18.451Z,0.70
2019-05-09T15:21:48.765Z,0.53
2019-05-09T15:24:19.149Z,0.40
2019-05-09T15:26:49.399Z,0.50
2019-05-09T15:29:18.722Z,0.70
2019-05-09T15:31:54.574Z,0.40
2019-05-09T15:34:19.210Z,0.40
2019-05-09T15:36:48.610Z,0.50
2019-05-09T15:39:18.491Z,0.37
2019-05-09T15:41:48.191Z,0.50
2019-05-09T15:44:18.646Z,0.40
2019-05-09T15:47:03.474Z,0.87
2019-05-09T15:49:32.874Z,0.50
2019-05-09T15:52:02.242Z,0.50
2019-05-09T15:54:31.630Z,0.40
2019-05-09T15:57:00.943Z,0.63
2019-05-09T15:59:30.323Z,0.43
2019-05-09T16:01:59.706Z,0.63
2019-05-09T16:04:29.113Z,0.53
2019-05-09T16:06:58.447Z,0.57
2019-05-09T16:09:28.570Z,0.50
2019-05-09T16:11:58.260Z,0.50
2019-05-09T16:14:27.826Z,0.73
2019-05-09T16:16:57.397Z,0.87
2019-05-09T16:19:26.774Z,0.50
2019-05-09T16:21:56.128Z,0.40
2019-05-09T16:24:27.804Z,0.63
2019-05-09T16:26:57.841Z,0.73
2019-05-09T16:29:28.530Z,0.53
2019-05-09T16:31:58.350Z,0.57
2019-05-09T16:34:28.199Z,0.60
2019-05-09T16:36:58.406Z,0.73
2019-05-09T16:39:27.981Z,0.53
2019-05-09T16:41:59.214Z,3.87
2019-05-09T16:44:28.779Z,4.43
2019-05-09T16:46:58.095Z,3.40
2019-05-09T16:49:29.220Z,2.10
2019-05-09T16:51:58.463Z,1.40
2019-05-09T16:54:32.013Z,1.23
2019-05-09T16:57:01.640Z,1.03
2019-05-09T16:59:31.100Z,0.50
2019-05-09T17:02:16.640Z,0.40
2019-05-09T17:04:31.607Z,0.83
2019-05-09T17:07:01.009Z,0.50
2019-05-09T17:09:30.367Z,0.50
2019-05-09T17:11:59.674Z,0.80
2019-05-09T17:14:29.043Z,0.50
2019-05-09T17:17:00.043Z,0.43
2019-05-09T17:19:29.551Z,0.83
2019-05-09T17:22:11.530Z,0.40
2019-05-09T17:24:41.917Z,0.30
2019-05-09T17:27:11.260Z,0.30
2019-05-09T17:29:40.691Z,0.43
2019-05-09T17:32:10.049Z,0.40
2019-05-09T17:34:42.276Z,0.53
2019-05-09T17:37:10.538Z,0.50
2019-05-09T17:39:39.985Z,0.77
2019-05-09T17:42:09.315Z,3.70
2019-05-09T17:44:38.685Z,1.70
2019-05-09T17:47:08.355Z,1.10
2019-05-09T17:49:37.933Z,0.43
2019-05-09T17:52:07.695Z,0.63
2019-05-09T17:54:37.959Z,0.70
2019-05-09T17:57:08.030Z,0.60
2019-05-09T17:59:39.243Z,0.70
2019-05-09T18:02:08.777Z,0.57
2019-05-09T18:04:38.269Z,0.60
2019-05-09T18:07:08.832Z,0.53
2019-05-09T18:09:38.505Z,0.90
2019-05-09T18:12:08.395Z,1.97
2019-05-09T18:14:38.373Z,1.50
2019-05-09T18:17:07.819Z,1.70
2019-05-09T18:19:38.046Z,1.13
2019-05-09T18:22:08.239Z,1.30
2019-05-09T18:24:37.819Z,1.00
2019-05-09T18:27:07.767Z,0.90
2019-05-09T18:29:38.019Z,2.37
2019-05-09T18:32:29.893Z,1.10
2019-05-09T18:35:17.129Z,0.70
2019-05-09T18:37:48.113Z,0.70
2019-05-09T18:40:19.758Z,1.50
2019-05-09T18:42:49.169Z,1.13
2019-05-09T18:45:19.455Z,1.27
2019-05-09T18:47:48.811Z,1.00
2019-05-09T18:50:18.661Z,1.57
2019-05-09T18:52:48.048Z,0.80
2019-05-09T18:55:17.722Z,1.03
2019-05-09T18:57:47.083Z,0.60
2019-05-09T19:00:18.737Z,1.27
2019-05-09T19:02:48.073Z,0.83
2019-05-09T19:05:17.511Z,0.83
2019-05-09T19:07:46.933Z,0.77
2019-05-09T19:10:16.549Z,0.70
2019-05-09T19:12:45.881Z,0.77
2019-05-09T19:15:26.362Z,0.70
2019-05-09T19:18:08.223Z,0.80
2019-05-09T19:21:08.992Z,0.73
2019-05-09T19:23:38.378Z,0.70
2019-05-09T19:26:09.325Z,0.63
2019-05-09T19:28:38.759Z,1.10
2019-05-09T19:31:08.240Z,0.97
2019-05-09T19:33:37.646Z,0.60
2019-05-09T19:36:06.963Z,0.97
2019-05-09T19:38:36.909Z,1.80
2019-05-09T19:41:06.261Z,1.33
2019-05-09T19:43:35.641Z,1.57
2019-05-09T19:46:05.065Z,1.80
2019-05-09T19:48:34.416Z,0.67
2019-05-09T19:51:03.868Z,1.20
2019-05-09T19:53:33.297Z,0.97
2019-05-09T19:56:03.042Z,0.53
2019-05-09T19:58:32.434Z,0.47
2019-05-09T20:03:36.922Z,1.07
2019-05-09T20:06:06.343Z,0.90
2019-05-09T20:08:35.686Z,0.80
2019-05-09T20:11:24.066Z,0.70
2019-05-09T20:14:16.197Z,0.70
2019-05-09T20:16:48.116Z,1.23
2019-05-09T20:19:17.598Z,0.87
2019-05-09T20:21:46.933Z,0.97
2019-05-09T20:24:16.342Z,1.27
2019-05-09T20:26:45.698Z,0.90
2019-05-09T20:29:15.125Z,1.00
2019-05-09T20:31:44.491Z,0.67
2019-05-09T20:34:13.960Z,0.87
2019-05-09T20:36:43.401Z,0.90
2019-05-09T20:39:12.923Z,0.80
2019-05-09T20:41:42.553Z,0.40
2019-05-09T20:44:12.132Z,0.57
2019-05-09T20:46:41.717Z,0.83
2019-05-09T20:49:11.329Z,0.70
2019-05-09T20:51:40.873Z,0.87
2019-05-09T20:54:20.639Z,0.73
2019-05-09T20:56:41.722Z,1.30
2019-05-09T20:59:11.222Z,1.23
2019-05-09T21:01:40.735Z,1.03
2019-05-09T21:04:10.362Z,1.03
2019-05-09T21:06:39.875Z,0.87
2019-05-09T21:09:09.483Z,1.17
2019-05-09T21:11:39.065Z,1.27
2019-05-09T21:14:08.665Z,1.10
2019-05-09T21:16:38.189Z,1.10
2019-05-09T21:19:07.730Z,0.80
2019-05-09T21:21:37.887Z,1.03
2019-05-09T21:24:07.426Z,1.23
2019-05-09T21:26:37.025Z,1.00
2019-05-09T21:29:06.767Z,1.33
2019-05-09T21:31:36.358Z,1.10
2019-05-09T21:34:06.016Z,1.13
2019-05-09T21:36:35.425Z,1.10
2019-05-09T21:39:06.331Z,1.07
2019-05-09T21:41:35.714Z,1.33
2019-05-09T21:44:05.182Z,0.97
2019-05-09T21:46:34.706Z,1.27
2019-05-09T21:49:06.383Z,1.13
2019-05-09T21:51:35.755Z,1.23
2019-05-09T21:54:05.138Z,0.80
2019-05-09T21:56:34.639Z,1.63
2019-05-09T21:59:04.043Z,1.37
2019-05-09T22:01:33.962Z,1.50
2019-05-09T22:04:03.342Z,1.50
2019-05-09T22:06:32.661Z,1.63
2019-05-09T22:09:02.075Z,1.20
2019-05-09T22:11:31.465Z,0.80
2019-05-09T22:14:00.847Z,1.43
2019-05-09T22:16:30.175Z,0.93
2019-05-09T22:18:59.597Z,0.83
2019-05-09T22:21:28.936Z,0.97
2019-05-09T22:23:58.377Z,1.03
2019-05-09T22:26:27.806Z,1.07
2019-05-09T22:28:57.289Z,0.87
2019-05-09T22:31:26.674Z,0.90
2019-05-09T22:33:56.046Z,0.90
2019-05-09T22:36:25.467Z,0.80
2019-05-09T22:38:54.839Z,1.07
2019-05-09T22:41:24.203Z,0.60
2019-05-09T22:43:53.631Z,1.00
2019-05-09T22:46:23.025Z,0.97
2019-05-09T22:48:52.339Z,0.70
2019-05-09T22:51:21.756Z,0.73
2019-05-09T22:53:51.172Z,0.80
2019-05-09T22:56:20.509Z,0.70
2019-05-09T22:58:49.838Z,0.87
2019-05-09T23:01:19.276Z,0.93
2019-05-09T23:03:48.674Z,0.93
2019-05-09T23:06:18.039Z,0.83
2019-05-09T23:08:47.376Z,0.80
2019-05-09T23:11:16.681Z,0.83
2019-05-09T23:13:54.817Z,0.73
2019-05-09T23:16:25.395Z,1.13
2019-05-09T23:18:55.326Z,0.60
2019-05-09T23:21:26.790Z,0.43
2019-05-09T23:24:04.848Z,0.90
2019-05-09T23:26:34.237Z,0.90
2019-05-09T23:29:03.601Z,0.40
2019-05-09T23:31:41.116Z,0.40
2019-05-09T23:34:10.497Z,0.40
2019-05-09T23:36:39.848Z,0.50
2019-05-09T23:39:29.889Z,1.07
2019-05-09T23:41:59.324Z,0.80
2019-05-09T23:44:28.723Z,0.30
2019-05-09T23:46:59.737Z,0.33
2019-05-09T23:49:29.125Z,0.57
2019-05-09T23:51:58.505Z,0.50
2019-05-09T23:54:47.196Z,0.60
2019-05-09T23:57:34.066Z,0.70
